sensor_id;sensor_type;location;lat;lon;timestamp;pressure;altitude;pressure_sealevel;temperature;humidity
25232;BME280;13176;51.140;6.290;2023-07-13T00:02:24;100619.59;;;21.42;47.80
25232;BME280;13176;51.140;6.290;2023-07-13T00:04:53;100701.53;;;21.92;49.02
25232;BME280;13176;51.140;6.290;2023-07-13T00:07:19;100683.69;;;21.94;47.36
25232;BME280;13176;51.140;6.290;2023-07-13T00:09:46;100795.31;;;22.67;48.41
25232;BME280;13176;51.140;6.290;2023-07-13T00:12:27;100782.00;;;22.81;47.34
25232;BME280;13176;51.140;6.290;2023-07-13T00:14:59;100640.03;;;21.85;48.03
25232;BME280;13176;51.140;6.290;2023-07-13T00:17:27;100675.38;;;22.14;47.95
25232;BME280;13176;51.140;6.290;2023-07-13T00:19:55;100584.69;;;21.63;47.16
25232;BME280;13176;51.140;6.290;2023-07-13T00:22:23;100741.53;;;22.48;47.14
25232;BME280;13176;51.140;6.290;2023-07-13T00:24:53;100591.88;;;21.32;47.62
25232;BME280;13176;51.140;6.290;2023-07-13T00:27:24;100746.41;;;22.12;48.36
25232;BME280;13176;51.140;6.290;2023-07-13T00:29:56;100719.19;;;21.93;48.72
25232;BME280;13176;51.140;6.290;2023-07-13T00:32:23;100606.75;;;21.34;48.77
25232;BME280;13176;51.140;6.290;2023-07-13T00:34:52;100643.31;;;21.60;48.83
25232;BME280;13176;51.140;6.290;2023-07-13T00:37:18;100664.13;;;21.82;48.35
25232;BME280;13176;51.140;6.290;2023-07-13T00:39:45;100692.00;;;21.75;48.52
25232;BME280;13176;51.140;6.290;2023-07-13T00:42:12;100599.25;;;21.27;49.34
25232;BME280;13176;51.140;6.290;2023-07-13T00:44:41;100644.63;;;21.38;49.68
25232;BME280;13176;51.140;6.290;2023-07-13T00:47:08;100684.81;;;21.77;49.63
25232;BME280;13176;51.140;6.290;2023-07-13T00:49:35;100698.53;;;21.69;49.98
25232;BME280;13176;51.140;6.290;2023-07-13T00:52:08;100584.91;;;21.15;49.31
25232;BME280;13176;51.140;6.290;2023-07-13T00:54:41;100660.69;;;21.50;49.69
25232;BME280;13176;51.140;6.290;2023-07-13T00:57:13;100777.72;;;22.21;49.71
25232;BME280;13176;51.140;6.290;2023-07-13T00:59:43;100573.81;;;20.78;50.69
25232;BME280;13176;51.140;6.290;2023-07-13T01:02:12;100650.94;;;21.35;50.35
25232;BME280;13176;51.140;6.290;2023-07-13T01:04:41;100639.34;;;21.22;50.25
25232;BME280;13176;51.140;6.290;2023-07-13T01:07:10;100669.31;;;21.24;50.24
25232;BME280;13176;51.140;6.290;2023-07-13T01:09:38;100672.06;;;21.23;51.33
25232;BME280;13176;51.140;6.290;2023-07-13T01:12:05;100577.25;;;20.49;51.23
25232;BME280;13176;51.140;6.290;2023-07-13T01:14:32;100643.16;;;21.03;50.90
25232;BME280;13176;51.140;6.290;2023-07-13T01:16:59;100599.50;;;20.93;50.76
25232;BME280;13176;51.140;6.290;2023-07-13T01:19:44;100618.69;;;20.98;50.88
25232;BME280;13176;51.140;6.290;2023-07-13T01:22:18;100520.03;;;20.45;51.11
25232;BME280;13176;51.140;6.290;2023-07-13T01:24:47;100703.75;;;21.26;51.81
25232;BME280;13176;51.140;6.290;2023-07-13T01:27:25;100581.72;;;20.49;52.51
25232;BME280;13176;51.140;6.290;2023-07-13T01:29:53;100629.88;;;20.72;52.31
25232;BME280;13176;51.140;6.290;2023-07-13T01:32:28;100713.34;;;21.13;52.48
25232;BME280;13176;51.140;6.290;2023-07-13T01:34:55;100789.03;;;21.51;53.07
25232;BME280;13176;51.140;6.290;2023-07-13T01:37:23;100569.25;;;20.35;52.18
25232;BME280;13176;51.140;6.290;2023-07-13T01:39:53;100673.91;;;20.91;53.34
25232;BME280;13176;51.140;6.290;2023-07-13T01:42:19;100601.72;;;20.54;52.42
25232;BME280;13176;51.140;6.290;2023-07-13T01:44:46;100657.94;;;20.76;53.14
25232;BME280;13176;51.140;6.290;2023-07-13T01:47:12;100662.50;;;20.74;52.71
25232;BME280;13176;51.140;6.290;2023-07-13T01:49:39;100683.38;;;20.80;53.21
25232;BME280;13176;51.140;6.290;2023-07-13T01:52:06;100694.75;;;20.97;53.82
25232;BME280;13176;51.140;6.290;2023-07-13T01:54:33;100688.78;;;20.94;52.96
25232;BME280;13176;51.140;6.290;2023-07-13T01:57:03;100679.78;;;20.96;53.17
25232;BME280;13176;51.140;6.290;2023-07-13T01:59:30;100630.47;;;20.77;52.93
25232;BME280;13176;51.140;6.290;2023-07-13T02:02:05;100630.28;;;20.65;53.04
25232;BME280;13176;51.140;6.290;2023-07-13T02:04:35;100638.84;;;20.54;53.37
25232;BME280;13176;51.140;6.290;2023-07-13T02:07:01;100587.69;;;20.21;53.87
25232;BME280;13176;51.140;6.290;2023-07-13T02:09:28;100741.25;;;21.04;53.57
25232;BME280;13176;51.140;6.290;2023-07-13T02:11:54;100747.78;;;20.99;54.58
25232;BME280;13176;51.140;6.290;2023-07-13T02:14:21;100568.81;;;19.95;54.74
25232;BME280;13176;51.140;6.290;2023-07-13T02:16:48;100598.88;;;20.11;53.88
25232;BME280;13176;51.140;6.290;2023-07-13T02:19:16;100761.63;;;20.88;55.31
25232;BME280;13176;51.140;6.290;2023-07-13T02:21:44;100642.91;;;20.13;55.13
25232;BME280;13176;51.140;6.290;2023-07-13T02:24:11;100688.97;;;20.59;54.77
25232;BME280;13176;51.140;6.290;2023-07-13T02:26:44;100756.69;;;21.13;54.13
25232;BME280;13176;51.140;6.290;2023-07-13T02:29:12;100668.34;;;20.48;54.23
25232;BME280;13176;51.140;6.290;2023-07-13T02:31:41;100715.34;;;20.77;54.46
25232;BME280;13176;51.140;6.290;2023-07-13T02:34:08;100675.22;;;20.52;54.39
25232;BME280;13176;51.140;6.290;2023-07-13T02:36:34;100707.09;;;20.83;54.75
25232;BME280;13176;51.140;6.290;2023-07-13T02:39:03;100710.34;;;20.88;54.64
25232;BME280;13176;51.140;6.290;2023-07-13T02:41:29;100684.72;;;20.56;55.40
25232;BME280;13176;51.140;6.290;2023-07-13T02:44:00;100770.72;;;21.00;54.87
25232;BME280;13176;51.140;6.290;2023-07-13T02:46:31;100596.34;;;19.92;54.80
25232;BME280;13176;51.140;6.290;2023-07-13T02:48:58;100718.91;;;20.45;55.39
25232;BME280;13176;51.140;6.290;2023-07-13T02:51:25;100760.69;;;20.57;55.96
25232;BME280;13176;51.140;6.290;2023-07-13T02:53:51;100819.06;;;20.72;56.53
25232;BME280;13176;51.140;6.290;2023-07-13T02:56:23;100650.91;;;19.62;56.70
25232;BME280;13176;51.140;6.290;2023-07-13T02:58:50;100672.41;;;19.56;57.80
25232;BME280;13176;51.140;6.290;2023-07-13T03:01:23;100589.88;;;19.15;57.98
25232;BME280;13176;51.140;6.290;2023-07-13T03:03:51;100576.91;;;19.09;58.17
25232;BME280;13176;51.140;6.290;2023-07-13T03:06:19;100803.75;;;20.45;58.88
25232;BME280;13176;51.140;6.290;2023-07-13T03:08:46;100589.56;;;19.21;58.03
25232;BME280;13176;51.140;6.290;2023-07-13T03:11:16;100825.72;;;20.64;57.66
25232;BME280;13176;51.140;6.290;2023-07-13T03:13:43;100604.38;;;19.25;58.10
25232;BME280;13176;51.140;6.290;2023-07-13T03:16:10;100773.50;;;20.49;57.38
25232;BME280;13176;51.140;6.290;2023-07-13T03:18:39;100671.84;;;19.84;57.64
25232;BME280;13176;51.140;6.290;2023-07-13T03:21:06;100591.34;;;19.37;57.91
25232;BME280;13176;51.140;6.290;2023-07-13T03:23:32;100747.19;;;20.12;58.04
25232;BME280;13176;51.140;6.290;2023-07-13T03:26:11;100818.22;;;20.72;58.00
25232;BME280;13176;51.140;6.290;2023-07-13T03:28:40;100812.16;;;20.53;57.96
25232;BME280;13176;51.140;6.290;2023-07-13T03:31:10;100619.47;;;19.23;58.48
25232;BME280;13176;51.140;6.290;2023-07-13T03:33:37;100633.63;;;19.22;58.82
25232;BME280;13176;51.140;6.290;2023-07-13T03:36:09;100751.84;;;19.90;59.45
25232;BME280;13176;51.140;6.290;2023-07-13T03:38:36;100621.31;;;19.21;58.52
25232;BME280;13176;51.140;6.290;2023-07-13T03:41:03;100824.97;;;20.45;57.97
25232;BME280;13176;51.140;6.290;2023-07-13T03:43:29;100709.72;;;19.69;59.01
25232;BME280;13176;51.140;6.290;2023-07-13T03:45:56;100742.81;;;19.77;58.91
25232;BME280;13176;51.140;6.290;2023-07-13T03:48:22;100728.72;;;19.77;58.64
25232;BME280;13176;51.140;6.290;2023-07-13T03:50:49;100713.91;;;19.56;59.14
25232;BME280;13176;51.140;6.290;2023-07-13T03:53:15;100783.50;;;19.93;58.96
25232;BME280;13176;51.140;6.290;2023-07-13T03:55:42;100641.78;;;19.17;58.75
25232;BME280;13176;51.140;6.290;2023-07-13T04:00:54;100853.03;;;20.49;58.53
25232;BME280;13176;51.140;6.290;2023-07-13T04:03:21;100854.59;;;20.53;58.75
25232;BME280;13176;51.140;6.290;2023-07-13T04:05:48;100706.00;;;19.21;59.45
25232;BME280;13176;51.140;6.290;2023-07-13T04:08:14;100795.56;;;19.82;59.67
25232;BME280;13176;51.140;6.290;2023-07-13T04:10:41;100843.84;;;20.05;59.57
25232;BME280;13176;51.140;6.290;2023-07-13T04:13:07;100733.66;;;19.32;60.55
25232;BME280;13176;51.140;6.290;2023-07-13T04:15:34;100855.94;;;20.11;60.13
25232;BME280;13176;51.140;6.290;2023-07-13T04:18:00;100755.38;;;19.39;60.01
25232;BME280;13176;51.140;6.290;2023-07-13T04:20:27;100788.91;;;19.56;60.65
25232;BME280;13176;51.140;6.290;2023-07-13T04:22:53;100791.47;;;19.58;60.25
25232;BME280;13176;51.140;6.290;2023-07-13T04:25:21;100784.16;;;19.63;60.72
25232;BME280;13176;51.140;6.290;2023-07-13T04:27:49;100727.97;;;19.40;59.95
25232;BME280;13176;51.140;6.290;2023-07-13T04:30:15;100764.94;;;19.59;60.52
25232;BME280;13176;51.140;6.290;2023-07-13T04:32:42;100837.00;;;20.18;59.90
25232;BME280;13176;51.140;6.290;2023-07-13T04:35:08;100863.97;;;20.43;59.60
25232;BME280;13176;51.140;6.290;2023-07-13T04:37:35;100839.41;;;20.23;59.74
25232;BME280;13176;51.140;6.290;2023-07-13T04:40:03;100766.50;;;19.80;59.94
25232;BME280;13176;51.140;6.290;2023-07-13T04:42:30;100766.03;;;19.89;59.40
25232;BME280;13176;51.140;6.290;2023-07-13T04:44:56;100853.75;;;20.53;59.27
25232;BME280;13176;51.140;6.290;2023-07-13T04:47:22;100761.03;;;19.83;59.02
25232;BME280;13176;51.140;6.290;2023-07-13T04:49:49;100761.34;;;19.77;59.75
25232;BME280;13176;51.140;6.290;2023-07-13T04:52:16;100839.50;;;20.38;60.30
25232;BME280;13176;51.140;6.290;2023-07-13T04:54:42;100855.69;;;20.66;58.78
25232;BME280;13176;51.140;6.290;2023-07-13T04:57:08;100767.31;;;19.99;59.60
25232;BME280;13176;51.140;6.290;2023-07-13T04:59:35;100788.09;;;20.24;59.38
25232;BME280;13176;51.140;6.290;2023-07-13T05:02:01;100860.88;;;20.35;60.33
25232;BME280;13176;51.140;6.290;2023-07-13T05:04:28;100692.78;;;19.38;60.24
25232;BME280;13176;51.140;6.290;2023-07-13T05:06:54;100889.06;;;20.53;60.77
25232;BME280;13176;51.140;6.290;2023-07-13T05:09:21;100885.09;;;20.28;60.95
25232;BME280;13176;51.140;6.290;2023-07-13T05:11:47;100761.56;;;19.56;61.00
25232;BME280;13176;51.140;6.290;2023-07-13T05:14:14;100887.69;;;20.29;61.48
25232;BME280;13176;51.140;6.290;2023-07-13T05:16:41;100869.25;;;20.09;62.13
25232;BME280;13176;51.140;6.290;2023-07-13T05:19:08;100820.88;;;19.87;61.38
25232;BME280;13176;51.140;6.290;2023-07-13T05:21:35;100895.06;;;20.23;62.02
25232;BME280;13176;51.140;6.290;2023-07-13T05:24:02;100898.13;;;20.32;61.95
25232;BME280;13176;51.140;6.290;2023-07-13T05:26:48;100766.44;;;19.47;62.54
25232;BME280;13176;51.140;6.290;2023-07-13T05:29:15;100861.47;;;20.23;62.10
25232;BME280;13176;51.140;6.290;2023-07-13T05:31:41;100896.25;;;20.34;62.39
25232;BME280;13176;51.140;6.290;2023-07-13T05:34:08;100889.00;;;20.21;62.78
25232;BME280;13176;51.140;6.290;2023-07-13T05:36:34;100872.84;;;19.90;63.60
25232;BME280;13176;51.140;6.290;2023-07-13T05:39:03;100779.34;;;19.36;64.19
25232;BME280;13176;51.140;6.290;2023-07-13T05:41:30;100906.50;;;20.06;64.41
25232;BME280;13176;51.140;6.290;2023-07-13T05:43:56;100826.84;;;19.39;64.94
25232;BME280;13176;51.140;6.290;2023-07-13T05:46:23;100823.63;;;19.67;64.11
25232;BME280;13176;51.140;6.290;2023-07-13T05:48:50;100909.94;;;20.08;64.43
25232;BME280;13176;51.140;6.290;2023-07-13T05:51:16;100917.78;;;20.28;64.56
25232;BME280;13176;51.140;6.290;2023-07-13T05:53:42;100838.97;;;19.96;64.01
25232;BME280;13176;51.140;6.290;2023-07-13T05:56:09;100927.94;;;20.37;64.49
25232;BME280;13176;51.140;6.290;2023-07-13T05:58:36;100909.97;;;20.42;64.28
25232;BME280;13176;51.140;6.290;2023-07-13T06:01:10;100930.41;;;20.40;64.54
25232;BME280;13176;51.140;6.290;2023-07-13T06:03:37;100839.66;;;20.01;64.91
25232;BME280;13176;51.140;6.290;2023-07-13T06:06:06;100927.59;;;20.43;64.35
25232;BME280;13176;51.140;6.290;2023-07-13T06:08:36;100924.19;;;20.75;64.25
25232;BME280;13176;51.140;6.290;2023-07-13T06:11:21;100819.69;;;20.11;63.61
25232;BME280;13176;51.140;6.290;2023-07-13T06:13:48;100827.88;;;20.07;63.41
25232;BME280;13176;51.140;6.290;2023-07-13T06:16:16;100875.81;;;20.19;64.47
25232;BME280;13176;51.140;6.290;2023-07-13T06:18:43;100806.41;;;19.94;63.26
25232;BME280;13176;51.140;6.290;2023-07-13T06:21:17;100891.56;;;20.56;63.93
25232;BME280;13176;51.140;6.290;2023-07-13T06:23:50;100930.13;;;20.80;63.96
25232;BME280;13176;51.140;6.290;2023-07-13T06:26:18;100947.97;;;20.76;64.24
25232;BME280;13176;51.140;6.290;2023-07-13T06:28:45;100954.94;;;20.96;63.82
25232;BME280;13176;51.140;6.290;2023-07-13T06:31:14;100950.09;;;20.70;64.33
25232;BME280;13176;51.140;6.290;2023-07-13T06:33:41;100958.50;;;20.61;65.35
25232;BME280;13176;51.140;6.290;2023-07-13T06:36:08;100951.66;;;20.74;64.70
25232;BME280;13176;51.140;6.290;2023-07-13T06:38:40;100853.13;;;20.14;64.10
25232;BME280;13176;51.140;6.290;2023-07-13T06:41:07;100865.59;;;20.29;64.22
25232;BME280;13176;51.140;6.290;2023-07-13T06:43:35;100935.81;;;20.72;64.32
25232;BME280;13176;51.140;6.290;2023-07-13T06:46:01;100923.03;;;20.80;64.21
25232;BME280;13176;51.140;6.290;2023-07-13T06:48:28;100839.81;;;20.32;63.52
25232;BME280;13176;51.140;6.290;2023-07-13T06:50:55;100934.97;;;20.72;63.58
25232;BME280;13176;51.140;6.290;2023-07-13T06:53:22;100893.63;;;20.34;64.58
25232;BME280;13176;51.140;6.290;2023-07-13T06:55:49;100986.53;;;21.00;64.18
25232;BME280;13176;51.140;6.290;2023-07-13T06:58:19;100956.78;;;20.77;64.69
25232;BME280;13176;51.140;6.290;2023-07-13T07:00:46;100939.50;;;20.87;64.05
25232;BME280;13176;51.140;6.290;2023-07-13T07:03:13;100986.09;;;21.42;63.54
25232;BME280;13176;51.140;6.290;2023-07-13T07:05:40;100888.28;;;20.51;63.91
25232;BME280;13176;51.140;6.290;2023-07-13T07:08:06;100988.34;;;21.00;64.62
25232;BME280;13176;51.140;6.290;2023-07-13T07:10:33;100962.69;;;21.16;64.01
25232;BME280;13176;51.140;6.290;2023-07-13T07:13:00;100956.81;;;20.94;64.34
25232;BME280;13176;51.140;6.290;2023-07-13T07:15:28;100995.81;;;21.26;64.69
25232;BME280;13176;51.140;6.290;2023-07-13T07:17:54;100975.81;;;21.36;64.03
25232;BME280;13176;51.140;6.290;2023-07-13T07:20:21;100991.41;;;21.42;63.57
25232;BME280;13176;51.140;6.290;2023-07-13T07:22:47;100935.44;;;20.97;63.98
25232;BME280;13176;51.140;6.290;2023-07-13T07:25:15;100952.34;;;21.11;64.13
25232;BME280;13176;51.140;6.290;2023-07-13T07:27:41;100983.25;;;21.62;62.95
25232;BME280;13176;51.140;6.290;2023-07-13T07:30:11;100924.50;;;21.03;63.79
25232;BME280;13176;51.140;6.290;2023-07-13T07:32:41;100979.41;;;21.35;64.70
25232;BME280;13176;51.140;6.290;2023-07-13T07:35:23;100850.56;;;20.29;65.26
25232;BME280;13176;51.140;6.290;2023-07-13T07:37:49;100983.00;;;21.34;65.07
25232;BME280;13176;51.140;6.290;2023-07-13T07:40:17;100964.97;;;21.23;64.69
25232;BME280;13176;51.140;6.290;2023-07-13T07:42:47;101009.03;;;21.60;63.98
25232;BME280;13176;51.140;6.290;2023-07-13T07:45:14;101014.38;;;21.43;64.41
25232;BME280;13176;51.140;6.290;2023-07-13T07:47:40;100983.84;;;21.34;64.20
25232;BME280;13176;51.140;6.290;2023-07-13T07:50:07;100952.09;;;21.16;65.05
25232;BME280;13176;51.140;6.290;2023-07-13T07:52:34;101000.00;;;21.47;64.29
25232;BME280;13176;51.140;6.290;2023-07-13T07:55:00;100803.44;;;20.51;63.98
25232;BME280;13176;51.140;6.290;2023-07-13T07:57:30;100967.38;;;21.28;65.33
25232;BME280;13176;51.140;6.290;2023-07-13T07:59:59;100995.22;;;21.53;64.64
25232;BME280;13176;51.140;6.290;2023-07-13T08:02:29;100989.69;;;21.88;63.85
25232;BME280;13176;51.140;6.290;2023-07-13T08:04:58;100967.88;;;21.84;63.28
25232;BME280;13176;51.140;6.290;2023-07-13T08:07:28;100975.31;;;21.92;63.93
25232;BME280;13176;51.140;6.290;2023-07-13T08:09:56;100974.53;;;21.90;63.62
25232;BME280;13176;51.140;6.290;2023-07-13T08:12:22;101009.03;;;22.07;62.62
25232;BME280;13176;51.140;6.290;2023-07-13T08:14:54;100996.41;;;21.95;63.02
25232;BME280;13176;51.140;6.290;2023-07-13T08:17:24;100969.56;;;22.15;62.50
25232;BME280;13176;51.140;6.290;2023-07-13T08:19:51;100995.81;;;22.52;62.36
25232;BME280;13176;51.140;6.290;2023-07-13T08:22:17;100935.78;;;21.87;62.13
25232;BME280;13176;51.140;6.290;2023-07-13T08:24:44;100973.34;;;21.81;63.37
25232;BME280;13176;51.140;6.290;2023-07-13T08:27:11;101003.19;;;22.47;62.14
25232;BME280;13176;51.140;6.290;2023-07-13T08:29:38;100962.88;;;22.08;61.92
25232;BME280;13176;51.140;6.290;2023-07-13T08:32:06;100994.59;;;22.58;61.87
25232;BME280;13176;51.140;6.290;2023-07-13T08:34:36;101012.72;;;22.51;61.24
25232;BME280;13176;51.140;6.290;2023-07-13T08:37:02;100949.13;;;22.31;61.29
25232;BME280;13176;51.140;6.290;2023-07-13T08:39:33;100993.75;;;22.57;61.68
25232;BME280;13176;51.140;6.290;2023-07-13T08:48:08;100989.00;;;22.62;60.81
25232;BME280;13176;51.140;6.290;2023-07-13T08:50:46;100784.25;;;21.57;60.30
25232;BME280;13176;51.140;6.290;2023-07-13T08:53:47;100858.47;;;21.76;60.40
25232;BME280;13176;51.140;6.290;2023-07-13T08:56:23;100996.00;;;22.49;60.29
25232;BME280;13176;51.140;6.290;2023-07-13T08:58:58;100953.63;;;22.15;60.61
25232;BME280;13176;51.140;6.290;2023-07-13T09:04:25;100951.53;;;22.51;59.32
25232;BME280;13176;51.140;6.290;2023-07-13T09:14:38;101001.16;;;23.11;57.68
25232;BME280;13176;51.140;6.290;2023-07-13T09:17:12;101005.38;;;23.29;58.32
25232;BME280;13176;51.140;6.290;2023-07-13T09:19:41;100942.81;;;23.07;57.72
25232;BME280;13176;51.140;6.290;2023-07-13T09:22:11;100997.59;;;23.54;56.95
25232;BME280;13176;51.140;6.290;2023-07-13T09:27:26;100996.34;;;23.45;56.58
25232;BME280;13176;51.140;6.290;2023-07-13T09:30:02;101006.91;;;23.61;56.55
25232;BME280;13176;51.140;6.290;2023-07-13T09:32:35;100788.56;;;22.18;56.02
25232;BME280;13176;51.140;6.290;2023-07-13T09:35:11;101004.59;;;23.69;56.09
25232;BME280;13176;51.140;6.290;2023-07-13T09:37:38;101001.88;;;23.70;56.17
25232;BME280;13176;51.140;6.290;2023-07-13T09:40:29;100991.31;;;23.55;56.44
25232;BME280;13176;51.140;6.290;2023-07-13T09:42:57;100997.19;;;23.46;55.78
25232;BME280;13176;51.140;6.290;2023-07-13T09:45:29;100893.06;;;23.35;55.01
25232;BME280;13176;51.140;6.290;2023-07-13T09:48:07;100960.38;;;23.80;54.79
25232;BME280;13176;51.140;6.290;2023-07-13T09:50:37;100997.19;;;24.02;54.95
25232;BME280;13176;51.140;6.290;2023-07-13T09:53:03;100985.00;;;23.98;53.48
25232;BME280;13176;51.140;6.290;2023-07-13T09:55:38;100942.56;;;23.67;52.63
25232;BME280;13176;51.140;6.290;2023-07-13T09:58:11;100996.13;;;24.18;53.23
25232;BME280;13176;51.140;6.290;2023-07-13T10:00:43;100989.47;;;24.11;52.67
25232;BME280;13176;51.140;6.290;2023-07-13T10:03:23;100922.28;;;23.64;52.56
25232;BME280;13176;51.140;6.290;2023-07-13T10:05:52;100997.50;;;24.24;52.32
25232;BME280;13176;51.140;6.290;2023-07-13T10:08:24;100840.72;;;23.48;50.99
25232;BME280;13176;51.140;6.290;2023-07-13T10:11:01;100996.81;;;24.48;52.97
25232;BME280;13176;51.140;6.290;2023-07-13T10:13:35;101002.78;;;24.51;51.53
25232;BME280;13176;51.140;6.290;2023-07-13T10:16:04;100978.38;;;24.43;52.95
25232;BME280;13176;51.140;6.290;2023-07-13T10:18:39;101003.03;;;24.34;50.71
25232;BME280;13176;51.140;6.290;2023-07-13T10:21:20;101017.25;;;24.61;51.12
25232;BME280;13176;51.140;6.290;2023-07-13T10:24:15;100996.41;;;24.54;51.74
25232;BME280;13176;51.140;6.290;2023-07-13T10:26:49;101011.19;;;24.72;53.07
25232;BME280;13176;51.140;6.290;2023-07-13T10:29:19;100992.88;;;24.92;51.08
25232;BME280;13176;51.140;6.290;2023-07-13T10:31:47;100895.31;;;24.35;49.21
25232;BME280;13176;51.140;6.290;2023-07-13T10:34:14;100998.25;;;25.17;50.03
25232;BME280;13176;51.140;6.290;2023-07-13T10:36:44;101015.53;;;24.60;50.56
25232;BME280;13176;51.140;6.290;2023-07-13T10:39:22;101001.03;;;24.64;50.29
25232;BME280;13176;51.140;6.290;2023-07-13T10:41:59;100926.47;;;24.09;51.96
25232;BME280;13176;51.140;6.290;2023-07-13T10:44:29;100920.19;;;24.62;49.65
25232;BME280;13176;51.140;6.290;2023-07-13T10:47:08;100982.84;;;25.08;49.63
25232;BME280;13176;51.140;6.290;2023-07-13T10:49:39;100965.03;;;24.70;49.31
25232;BME280;13176;51.140;6.290;2023-07-13T10:52:42;100980.41;;;24.66;49.07
25232;BME280;13176;51.140;6.290;2023-07-13T10:55:35;101035.13;;;24.73;48.37
25232;BME280;13176;51.140;6.290;2023-07-13T10:58:20;100883.31;;;23.90;49.91
25232;BME280;13176;51.140;6.290;2023-07-13T11:03:31;101019.56;;;25.44;48.49
25232;BME280;13176;51.140;6.290;2023-07-13T11:06:15;100975.25;;;25.02;47.61
25232;BME280;13176;51.140;6.290;2023-07-13T11:21:30;100911.41;;;25.60;45.28
25232;BME280;13176;51.140;6.290;2023-07-13T11:32:01;101017.63;;;26.44;43.10
25232;BME280;13176;51.140;6.290;2023-07-13T11:34:46;100972.72;;;26.11;44.10
25232;BME280;13176;51.140;6.290;2023-07-13T11:37:16;101002.34;;;26.57;44.08
25232;BME280;13176;51.140;6.290;2023-07-13T11:39:45;100892.03;;;26.05;44.22
25232;BME280;13176;51.140;6.290;2023-07-13T11:42:16;100993.81;;;26.52;42.83
25232;BME280;13176;51.140;6.290;2023-07-13T11:44:47;101002.28;;;27.03;40.84
25232;BME280;13176;51.140;6.290;2023-07-13T11:47:34;100990.06;;;26.99;41.65
25232;BME280;13176;51.140;6.290;2023-07-13T11:50:06;100995.66;;;27.09;41.19
25232;BME280;13176;51.140;6.290;2023-07-13T11:52:35;100985.28;;;26.81;41.51
25232;BME280;13176;51.140;6.290;2023-07-13T11:55:13;100979.47;;;27.21;42.55
25232;BME280;13176;51.140;6.290;2023-07-13T11:57:58;100993.69;;;27.67;41.52
25232;BME280;13176;51.140;6.290;2023-07-13T12:00:29;100958.88;;;27.44;40.96
25232;BME280;13176;51.140;6.290;2023-07-13T12:03:01;100978.88;;;27.40;40.04
25232;BME280;13176;51.140;6.290;2023-07-13T12:05:31;100997.56;;;27.63;40.15
25232;BME280;13176;51.140;6.290;2023-07-13T12:07:58;100989.28;;;27.77;39.72
25232;BME280;13176;51.140;6.290;2023-07-13T12:10:27;101003.16;;;27.60;39.53
25232;BME280;13176;51.140;6.290;2023-07-13T12:13:05;100989.72;;;27.27;40.33
25232;BME280;13176;51.140;6.290;2023-07-13T12:15:37;101015.78;;;26.67;41.39
25232;BME280;13176;51.140;6.290;2023-07-13T12:18:31;100986.06;;;27.28;40.69
25232;BME280;13176;51.140;6.290;2023-07-13T12:21:01;100936.25;;;26.57;40.50
25232;BME280;13176;51.140;6.290;2023-07-13T12:23:31;100996.06;;;26.68;40.08
25232;BME280;13176;51.140;6.290;2023-07-13T12:26:00;100957.91;;;26.54;40.17
25232;BME280;13176;51.140;6.290;2023-07-13T12:28:34;100980.91;;;27.14;40.08
25232;BME280;13176;51.140;6.290;2023-07-13T12:31:03;100806.91;;;26.10;39.05
25232;BME280;13176;51.140;6.290;2023-07-13T12:33:31;100988.47;;;27.20;38.78
25232;BME280;13176;51.140;6.290;2023-07-13T12:36:03;100975.28;;;27.06;38.90
25232;BME280;13176;51.140;6.290;2023-07-13T12:38:32;100981.88;;;26.32;40.86
25232;BME280;13176;51.140;6.290;2023-07-13T12:41:03;100841.72;;;25.50;41.80
25232;BME280;13176;51.140;6.290;2023-07-13T12:43:36;101002.75;;;26.63;41.06
25232;BME280;13176;51.140;6.290;2023-07-13T12:46:21;101003.91;;;26.36;42.07
25232;BME280;13176;51.140;6.290;2023-07-13T12:48:54;101009.25;;;26.36;42.35
25232;BME280;13176;51.140;6.290;2023-07-13T12:51:38;100918.09;;;25.42;41.97
25232;BME280;13176;51.140;6.290;2023-07-13T12:54:13;100954.84;;;25.51;40.98
25232;BME280;13176;51.140;6.290;2023-07-13T12:56:43;100898.31;;;25.32;40.29
25232;BME280;13176;51.140;6.290;2023-07-13T12:59:17;101005.97;;;26.32;39.64
25232;BME280;13176;51.140;6.290;2023-07-13T13:01:50;100998.03;;;26.31;40.39
25232;BME280;13176;51.140;6.290;2023-07-13T13:04:17;100989.66;;;26.48;40.65
25232;BME280;13176;51.140;6.290;2023-07-13T13:06:48;100922.84;;;26.10;40.10
25232;BME280;13176;51.140;6.290;2023-07-13T13:09:16;101000.88;;;26.53;40.73
25232;BME280;13176;51.140;6.290;2023-07-13T13:11:44;100991.69;;;26.44;42.02
25232;BME280;13176;51.140;6.290;2023-07-13T13:14:11;100965.09;;;26.54;43.35
25232;BME280;13176;51.140;6.290;2023-07-13T13:16:48;100982.53;;;26.93;40.73
25232;BME280;13176;51.140;6.290;2023-07-13T13:19:19;100976.25;;;26.48;40.88
25232;BME280;13176;51.140;6.290;2023-07-13T13:21:48;100988.97;;;26.57;41.32
25232;BME280;13176;51.140;6.290;2023-07-13T13:24:19;100884.75;;;26.07;41.25
25232;BME280;13176;51.140;6.290;2023-07-13T13:26:47;100988.47;;;26.63;41.43
25232;BME280;13176;51.140;6.290;2023-07-13T13:29:22;100982.66;;;26.58;40.47
25232;BME280;13176;51.140;6.290;2023-07-13T13:31:54;100995.53;;;26.17;40.48
25232;BME280;13176;51.140;6.290;2023-07-13T13:34:21;100988.59;;;26.84;39.61
25232;BME280;13176;51.140;6.290;2023-07-13T13:36:50;100979.78;;;27.17;40.37
25232;BME280;13176;51.140;6.290;2023-07-13T13:39:22;100993.50;;;27.01;39.62
25232;BME280;13176;51.140;6.290;2023-07-13T13:41:51;100986.53;;;26.54;39.74
25232;BME280;13176;51.140;6.290;2023-07-13T13:44:18;100976.69;;;26.42;38.88
25232;BME280;13176;51.140;6.290;2023-07-13T13:46:48;100875.09;;;26.17;39.86
25232;BME280;13176;51.140;6.290;2023-07-13T13:49:21;100982.84;;;27.12;39.58
25232;BME280;13176;51.140;6.290;2023-07-13T13:51:48;100998.19;;;27.10;39.62